Time;durP1;ratioP1;P1;durP2;ratioP2;P2;SDS_P1;SDS_P2;PMS_P1;PMS_P2;Temp;Humidity;BMP_temperature;BMP_pressure;BME280_temperature;BME280_humidity;BME280_pressure;Samples;Min_cycle;Max_cycle;Signal;HPM_P1;HPM_P2
2022/09/10 00:00:01;;;;;;;16.33;9.00;;;;;;;;;;5057899;28;20017;-76
2022/09/10 00:02:28;;;;;;;17.63;8.68;;;;;;;;;;5055751;28;20024;-75
2022/09/10 00:04:54;;;;;;;18.10;9.52;;;;;;;;;;5053945;28;20022;-76
2022/09/10 00:07:20;;;;;;;21.25;9.32;;;;;;;;;;5063856;28;20038;-75
2022/09/10 00:09:46;;;;;;;20.23;9.20;;;;;;;;;;5060871;28;20036;-75
2022/09/10 00:12:13;;;;;;;20.35;9.13;;;;;;;;;;5062841;28;20042;-75
2022/09/10 00:14:39;;;;;;;17.83;8.95;;;;;;;;;;5062006;28;20112;-76
2022/09/10 00:17:06;;;;;;;16.42;8.60;;;;;;;;;;5057195;28;20016;-75
2022/09/10 00:19:32;;;;;;;19.13;9.30;;;;;;;;;;5060808;28;20041;-76
2022/09/10 00:21:58;;;;;;;15.27;8.73;;;;;;;;;;5061547;28;20017;-77
2022/09/10 00:24:24;;;;;;;17.05;8.90;;;;;;;;;;5063689;28;20032;-76
2022/09/10 00:26:51;;;;;;;22.58;9.35;;;;;;;;;;5057251;28;20403;-76
2022/09/10 00:29:18;;;;;;;17.40;8.40;;;;;;;;;;5057267;28;20029;-76
2022/09/10 00:31:44;;;;;;;21.90;9.15;;;;;;;;;;5057674;28;20029;-77
2022/09/10 00:34:11;;;;;;;21.52;8.57;;;;;;;;;;5065691;28;20066;-76
2022/09/10 00:36:39;;;;;;;17.42;8.70;;;;;;;;;;5058438;28;20028;-76
2022/09/10 00:39:06;;;;;;;21.08;8.25;;;;;;;;;;5060618;28;20060;-76
2022/09/10 00:41:33;;;;;;;18.92;9.00;;;;;;;;;;5061716;28;20572;-76
2022/09/10 00:44:01;;;;;;;15.57;7.93;;;;;;;;;;5058100;28;20051;-76
2022/09/10 00:46:41;;;;;;;20.15;8.55;;;;;;;;;;5061520;28;20083;-75
2022/09/10 00:49:30;;;;;;;21.70;8.55;;;;;;;;;;5055884;28;20436;-76
2022/09/10 00:51:56;;;;;;;19.80;8.45;;;;;;;;;;5062685;28;20025;-77
2022/09/10 00:54:24;;;;;;;16.35;7.78;;;;;;;;;;5057700;28;20035;-77
2022/09/10 00:56:51;;;;;;;22.45;9.13;;;;;;;;;;5061167;28;20038;-76
2022/09/10 00:59:20;;;;;;;19.50;8.20;;;;;;;;;;5056683;28;20051;-77
2022/09/10 01:01:48;;;;;;;23.60;9.35;;;;;;;;;;5057000;28;20021;-76
2022/09/10 01:04:14;;;;;;;20.42;9.38;;;;;;;;;;5058344;28;20376;-76
2022/09/10 01:06:41;;;;;;;18.65;8.57;;;;;;;;;;5060468;28;20024;-76
2022/09/10 01:09:08;;;;;;;24.05;8.35;;;;;;;;;;5065935;28;20047;-76
2022/09/10 01:11:41;;;;;;;16.10;7.00;;;;;;;;;;5066434;28;20044;-76
2022/09/10 01:14:30;;;;;;;24.73;8.30;;;;;;;;;;5067955;28;20026;-76
2022/09/10 01:17:03;;;;;;;21.95;8.68;;;;;;;;;;5067287;28;20580;-77
2022/09/10 01:19:29;;;;;;;19.45;8.93;;;;;;;;;;5068612;28;20111;-76
2022/09/10 01:22:18;;;;;;;23.08;8.52;;;;;;;;;;5067897;28;20534;-77
2022/09/10 01:24:44;;;;;;;23.30;8.40;;;;;;;;;;5056580;28;20544;-77
2022/09/10 01:27:29;;;;;;;19.38;8.48;;;;;;;;;;5070450;28;20464;-76
2022/09/10 01:29:57;;;;;;;23.40;7.47;;;;;;;;;;5061817;28;20063;-76
2022/09/10 01:32:43;;;;;;;24.05;8.32;;;;;;;;;;5062789;28;20025;-77
2022/09/10 01:35:13;;;;;;;23.25;8.43;;;;;;;;;;5058331;28;20022;-76
2022/09/10 01:37:41;;;;;;;21.88;8.25;;;;;;;;;;5062856;28;20020;-76
2022/09/10 01:40:08;;;;;;;20.00;7.85;;;;;;;;;;5058005;28;20076;-75
2022/09/10 01:42:37;;;;;;;21.15;8.35;;;;;;;;;;5063977;28;20789;-75
2022/09/10 01:45:03;;;;;;;24.52;8.55;;;;;;;;;;5059865;28;20021;-75
2022/09/10 01:47:32;;;;;;;24.52;7.45;;;;;;;;;;5058885;28;20050;-75
2022/09/10 01:49:59;;;;;;;23.63;8.93;;;;;;;;;;5058741;28;20370;-75
2022/09/10 01:52:41;;;;;;;29.95;10.43;;;;;;;;;;5060050;28;20128;-75
2022/09/10 01:55:10;;;;;;;24.25;10.38;;;;;;;;;;5065933;28;20388;-74
2022/09/10 01:57:47;;;;;;;27.20;10.02;;;;;;;;;;5058673;28;20020;-74
2022/09/10 02:00:16;;;;;;;22.15;9.73;;;;;;;;;;5061994;28;20028;-73
2022/09/10 02:02:52;;;;;;;24.95;9.55;;;;;;;;;;5058604;28;20060;-75
2022/09/10 02:05:20;;;;;;;22.20;8.77;;;;;;;;;;5062605;28;20071;-75
2022/09/10 02:07:47;;;;;;;23.83;9.80;;;;;;;;;;5060188;28;20029;-74
2022/09/10 02:10:14;;;;;;;23.50;8.90;;;;;;;;;;5062027;28;20523;-75
2022/09/10 02:12:40;;;;;;;22.45;10.07;;;;;;;;;;5058907;28;20028;-75
2022/09/10 02:15:08;;;;;;;23.20;8.10;;;;;;;;;;5060630;28;20059;-75
2022/09/10 02:17:38;;;;;;;20.52;8.85;;;;;;;;;;5058136;28;20472;-75
2022/09/10 02:20:12;;;;;;;22.85;8.63;;;;;;;;;;5062591;28;20033;-76
2022/09/10 02:22:40;;;;;;;23.17;8.93;;;;;;;;;;5057395;28;20108;-75
2022/09/10 02:25:08;;;;;;;18.10;8.20;;;;;;;;;;5060584;28;20031;-75
2022/09/10 02:27:35;;;;;;;22.30;9.30;;;;;;;;;;5060560;28;20120;-75
2022/09/10 02:30:01;;;;;;;20.60;8.07;;;;;;;;;;5059614;28;20557;-74
2022/09/10 02:32:27;;;;;;;22.50;9.68;;;;;;;;;;5062000;28;20695;-75
2022/09/10 02:34:53;;;;;;;24.13;9.70;;;;;;;;;;5060449;28;20551;-75
2022/09/10 02:37:20;;;;;;;21.40;9.80;;;;;;;;;;5061794;28;20058;-75
2022/09/10 02:39:46;;;;;;;23.58;10.07;;;;;;;;;;5061840;28;20056;-75
2022/09/10 02:42:15;;;;;;;29.70;11.95;;;;;;;;;;5062065;28;20051;-75
2022/09/10 02:44:42;;;;;;;29.33;12.25;;;;;;;;;;5059455;28;20025;-75
2022/09/10 02:47:08;;;;;;;28.20;12.70;;;;;;;;;;5059862;28;20055;-76
2022/09/10 02:49:34;;;;;;;31.90;12.80;;;;;;;;;;5054118;28;20510;-76
2022/09/10 02:52:01;;;;;;;22.02;10.90;;;;;;;;;;5058025;28;20042;-76
2022/09/10 02:54:28;;;;;;;22.90;11.43;;;;;;;;;;5063301;28;20676;-75
2022/09/10 02:56:55;;;;;;;28.05;11.50;;;;;;;;;;5058217;28;20078;-76
2022/09/10 02:59:22;;;;;;;16.83;10.45;;;;;;;;;;5060184;28;20021;-75
2022/09/10 03:01:48;;;;;;;24.02;11.10;;;;;;;;;;5058885;28;20033;-76
2022/09/10 03:04:15;;;;;;;24.20;11.00;;;;;;;;;;5059041;28;20021;-73
2022/09/10 03:06:42;;;;;;;27.90;11.70;;;;;;;;;;5059202;28;20063;-72
2022/09/10 03:09:08;;;;;;;17.98;10.27;;;;;;;;;;5058638;28;20012;-75
2022/09/10 03:11:38;;;;;;;23.33;11.25;;;;;;;;;;5061124;28;20036;-75
2022/09/10 03:14:05;;;;;;;20.23;10.77;;;;;;;;;;5058318;28;20013;-74
2022/09/10 03:16:31;;;;;;;17.35;10.55;;;;;;;;;;5059236;28;20047;-74
2022/09/10 03:18:57;;;;;;;23.35;10.65;;;;;;;;;;5051429;28;20020;-75
2022/09/10 03:21:24;;;;;;;21.42;10.38;;;;;;;;;;5053815;28;20032;-74
2022/09/10 03:23:51;;;;;;;18.33;10.60;;;;;;;;;;5059017;28;20012;-76
2022/09/10 03:26:18;;;;;;;18.73;9.93;;;;;;;;;;5057740;28;20021;-76
2022/09/10 03:28:45;;;;;;;22.20;10.48;;;;;;;;;;5050028;28;20017;-74
2022/09/10 03:31:12;;;;;;;23.45;10.25;;;;;;;;;;5051005;28;20033;-75
2022/09/10 03:33:39;;;;;;;18.55;9.50;;;;;;;;;;5051871;28;20024;-75
2022/09/10 03:36:06;;;;;;;20.08;9.40;;;;;;;;;;5049709;28;20061;-75
2022/09/10 03:38:32;;;;;;;22.42;9.85;;;;;;;;;;5053136;28;20504;-75
2022/09/10 03:41:01;;;;;;;20.27;10.55;;;;;;;;;;5048212;28;20021;-72
2022/09/10 03:43:28;;;;;;;16.55;9.95;;;;;;;;;;5051960;28;20033;-75
2022/09/10 03:45:54;;;;;;;19.40;10.25;;;;;;;;;;5050156;28;20099;-75
2022/09/10 03:48:21;;;;;;;20.58;10.60;;;;;;;;;;5050385;28;20052;-75
2022/09/10 03:50:49;;;;;;;17.33;9.35;;;;;;;;;;5051430;28;20040;-73
2022/09/10 03:53:16;;;;;;;15.82;9.50;;;;;;;;;;5050659;28;20627;-75
2022/09/10 03:55:43;;;;;;;20.98;9.30;;;;;;;;;;5050775;28;20025;-75
2022/09/10 03:58:10;;;;;;;21.75;9.70;;;;;;;;;;5049889;28;20029;-74
2022/09/10 04:00:36;;;;;;;19.42;9.57;;;;;;;;;;5050364;28;20415;-75
2022/09/10 04:03:04;;;;;;;21.60;9.80;;;;;;;;;;5049125;28;20055;-75
2022/09/10 04:05:31;;;;;;;14.15;9.23;;;;;;;;;;5050584;28;20387;-74
2022/09/10 04:07:57;;;;;;;17.23;8.68;;;;;;;;;;5048806;28;20070;-74
2022/09/10 04:10:24;;;;;;;19.88;9.13;;;;;;;;;;5049682;28;20571;-76
2022/09/10 04:12:54;;;;;;;20.08;8.88;;;;;;;;;;5052600;28;20479;-73
2022/09/10 04:15:21;;;;;;;26.15;10.77;;;;;;;;;;5050355;28;20591;-75
2022/09/10 04:17:50;;;;;;;17.70;9.43;;;;;;;;;;5050138;28;20013;-75
2022/09/10 04:20:16;;;;;;;16.80;9.48;;;;;;;;;;5048568;28;20060;-73
2022/09/10 04:22:43;;;;;;;18.45;8.95;;;;;;;;;;5050265;28;20103;-73
2022/09/10 04:25:09;;;;;;;19.08;9.32;;;;;;;;;;5048053;28;20622;-76
2022/09/10 04:27:35;;;;;;;18.20;8.55;;;;;;;;;;5052828;28;20020;-73
2022/09/10 04:30:02;;;;;;;14.38;8.50;;;;;;;;;;5047761;28;20033;-75
2022/09/10 04:32:28;;;;;;;18.45;9.23;;;;;;;;;;5051427;28;20025;-73
2022/09/10 04:34:54;;;;;;;18.75;8.73;;;;;;;;;;5048414;28;20100;-75
2022/09/10 04:37:20;;;;;;;14.50;8.50;;;;;;;;;;5047755;28;20552;-75
2022/09/10 04:39:46;;;;;;;15.35;8.55;;;;;;;;;;5050885;28;20033;-73
2022/09/10 04:42:14;;;;;;;16.95;8.88;;;;;;;;;;5067324;28;20263;-75
2022/09/10 04:44:40;;;;;;;18.70;9.00;;;;;;;;;;5049781;28;20518;-76
2022/09/10 04:47:06;;;;;;;15.10;8.30;;;;;;;;;;5047518;28;20136;-76
2022/09/10 04:49:32;;;;;;;18.45;8.30;;;;;;;;;;5050379;28;20488;-75
2022/09/10 04:51:58;;;;;;;15.48;7.85;;;;;;;;;;5048849;28;20764;-76
2022/09/10 04:54:25;;;;;;;21.60;8.80;;;;;;;;;;5048484;28;20028;-76
2022/09/10 04:56:51;;;;;;;16.02;8.40;;;;;;;;;;5050839;28;20025;-75
2022/09/10 04:59:17;;;;;;;21.83;9.07;;;;;;;;;;5046927;28;20028;-76
2022/09/10 05:01:43;;;;;;;20.27;8.48;;;;;;;;;;5052221;28;20021;-77
2022/09/10 05:04:09;;;;;;;21.77;9.00;;;;;;;;;;5047385;28;20013;-74
2022/09/10 05:06:35;;;;;;;16.00;9.13;;;;;;;;;;5051036;28;20127;-75
2022/09/10 05:09:02;;;;;;;27.90;10.00;;;;;;;;;;5048219;28;20477;-76
2022/09/10 05:11:28;;;;;;;19.15;9.00;;;;;;;;;;5055029;28;20114;-75
2022/09/10 05:13:54;;;;;;;21.10;10.23;;;;;;;;;;5049603;28;20025;-76
2022/09/10 05:16:20;;;;;;;17.90;9.70;;;;;;;;;;5046990;28;20033;-76
2022/09/10 05:18:47;;;;;;;29.77;10.95;;;;;;;;;;5055809;28;20089;-76
2022/09/10 05:21:13;;;;;;;21.55;11.82;;;;;;;;;;5046852;28;20024;-76
2022/09/10 05:23:40;;;;;;;23.77;11.43;;;;;;;;;;5050693;28;20107;-73
2022/09/10 05:26:08;;;;;;;20.92;11.35;;;;;;;;;;5047893;28;20021;-76
2022/09/10 05:28:35;;;;;;;30.45;12.00;;;;;;;;;;5050407;28;20605;-76
2022/09/10 05:31:01;;;;;;;29.77;11.43;;;;;;;;;;5051034;28;20413;-76
2022/09/10 05:33:27;;;;;;;21.60;12.00;;;;;;;;;;5046930;28;20037;-75
2022/09/10 05:35:53;;;;;;;19.58;10.75;;;;;;;;;;5050060;28;20033;-75
2022/09/10 05:38:19;;;;;;;19.25;10.77;;;;;;;;;;5048061;28;20021;-75
2022/09/10 05:40:46;;;;;;;22.73;10.68;;;;;;;;;;5049424;28;20059;-76
2022/09/10 05:43:12;;;;;;;22.55;9.43;;;;;;;;;;5051882;28;20107;-76
2022/09/10 05:45:38;;;;;;;16.63;9.70;;;;;;;;;;5045621;28;20033;-76
2022/09/10 05:48:04;;;;;;;19.90;9.43;;;;;;;;;;5046961;28;20072;-76
2022/09/10 05:50:30;;;;;;;23.65;9.43;;;;;;;;;;5044431;28;20032;-74
2022/09/10 05:52:57;;;;;;;18.50;8.38;;;;;;;;;;5048590;28;20484;-76
2022/09/10 05:55:23;;;;;;;19.05;8.93;;;;;;;;;;5049340;28;20404;-75
2022/09/10 05:57:49;;;;;;;22.48;9.02;;;;;;;;;;5048496;28;20021;-76
2022/09/10 06:00:15;;;;;;;22.35;9.32;;;;;;;;;;5052503;28;20643;-75
2022/09/10 06:02:42;;;;;;;23.17;9.32;;;;;;;;;;5054340;28;20376;-76
2022/09/10 06:05:08;;;;;;;20.33;10.13;;;;;;;;;;5050341;28;20048;-75
2022/09/10 06:07:34;;;;;;;14.65;8.98;;;;;;;;;;5055350;28;20017;-76
2022/09/10 06:10:01;;;;;;;15.70;9.25;;;;;;;;;;5052645;28;20090;-75
2022/09/10 06:12:27;;;;;;;22.25;10.13;;;;;;;;;;5057414;28;20016;-75
2022/09/10 06:14:53;;;;;;;19.58;9.82;;;;;;;;;;5048818;28;20045;-75
2022/09/10 06:17:19;;;;;;;20.67;9.32;;;;;;;;;;5043931;28;20033;-74
2022/09/10 06:19:46;;;;;;;25.27;11.20;;;;;;;;;;5049368;28;20037;-81
2022/09/10 06:22:13;;;;;;;22.50;10.68;;;;;;;;;;5057737;28;20513;-79
2022/09/10 06:24:39;;;;;;;23.25;11.45;;;;;;;;;;5058415;28;20024;-78
2022/09/10 06:27:06;;;;;;;19.92;10.88;;;;;;;;;;5054562;28;20417;-77
2022/09/10 06:29:34;;;;;;;21.17;10.57;;;;;;;;;;5059191;28;20067;-78
2022/09/10 06:32:01;;;;;;;20.48;10.77;;;;;;;;;;5055890;28;20192;-79
2022/09/10 06:34:27;;;;;;;21.48;9.52;;;;;;;;;;5059740;28;20024;-78
2022/09/10 06:36:54;;;;;;;18.33;9.15;;;;;;;;;;5050141;28;20029;-76
2022/09/10 06:39:20;;;;;;;16.88;9.30;;;;;;;;;;5052545;28;20028;-77
2022/09/10 06:41:46;;;;;;;20.25;9.00;;;;;;;;;;5056562;28;20563;-77
2022/09/10 06:44:12;;;;;;;21.75;10.95;;;;;;;;;;5061369;28;20380;-77
2022/09/10 06:46:38;;;;;;;25.25;11.25;;;;;;;;;;5060883;28;20035;-78
2022/09/10 06:49:05;;;;;;;23.13;10.50;;;;;;;;;;5059502;28;20056;-80
2022/09/10 06:51:32;;;;;;;24.23;10.77;;;;;;;;;;5059251;28;20555;-80
2022/09/10 06:53:59;;;;;;;22.08;10.45;;;;;;;;;;5060589;28;20017;-76
2022/09/10 06:56:26;;;;;;;20.60;9.82;;;;;;;;;;5058574;28;20381;-76
2022/09/10 06:58:52;;;;;;;19.60;10.27;;;;;;;;;;5061885;28;20252;-80
2022/09/10 07:01:19;;;;;;;17.00;8.48;;;;;;;;;;5057640;28;20021;-79
2022/09/10 07:03:46;;;;;;;21.27;9.20;;;;;;;;;;5057403;28;20150;-79
2022/09/10 07:06:14;;;;;;;22.17;8.98;;;;;;;;;;5054581;28;20024;-77
2022/09/10 07:08:40;;;;;;;18.90;7.88;;;;;;;;;;5056289;28;20025;-78
2022/09/10 07:11:10;;;;;;;16.17;7.65;;;;;;;;;;5055213;28;20119;-79
2022/09/10 07:13:37;;;;;;;14.27;6.43;;;;;;;;;;5057387;28;20021;-79
2022/09/10 07:16:03;;;;;;;14.55;6.57;;;;;;;;;;5059146;28;20028;-79
2022/09/10 07:18:29;;;;;;;15.65;7.75;;;;;;;;;;5055026;28;20031;-79
2022/09/10 07:21:08;;;;;;;20.30;8.55;;;;;;;;;;5059190;28;20024;-79
2022/09/10 07:23:35;;;;;;;20.20;9.30;;;;;;;;;;5054581;28;20412;-79
2022/09/10 07:26:05;;;;;;;20.13;8.60;;;;;;;;;;5058489;28;20023;-78
2022/09/10 07:28:31;;;;;;;19.38;8.70;;;;;;;;;;5051120;28;20358;-79
2022/09/10 07:30:57;;;;;;;14.45;7.75;;;;;;;;;;5058702;28;20039;-78
2022/09/10 07:33:24;;;;;;;20.77;8.05;;;;;;;;;;5056174;28;20037;-79
2022/09/10 07:35:50;;;;;;;14.93;7.72;;;;;;;;;;5054058;28;20032;-78
2022/09/10 07:38:16;;;;;;;20.15;8.13;;;;;;;;;;5051493;28;20024;-77
2022/09/10 07:40:43;;;;;;;23.15;8.63;;;;;;;;;;5055186;28;20358;-79
2022/09/10 07:43:09;;;;;;;19.23;8.50;;;;;;;;;;5054728;28;20039;-79
2022/09/10 07:45:35;;;;;;;18.55;8.05;;;;;;;;;;5064737;28;20028;-78
2022/09/10 07:48:02;;;;;;;16.50;7.90;;;;;;;;;;5054940;28;20082;-78
2022/09/10 07:50:28;;;;;;;13.32;8.25;;;;;;;;;;5056243;28;20039;-79
2022/09/10 07:52:54;;;;;;;15.77;8.65;;;;;;;;;;5053872;28;20028;-79
2022/09/10 07:55:22;;;;;;;16.70;8.13;;;;;;;;;;5059875;28;20477;-79
2022/09/10 07:57:48;;;;;;;20.95;8.80;;;;;;;;;;5056680;28;20120;-80
2022/09/10 08:00:15;;;;;;;21.52;8.95;;;;;;;;;;5055940;28;20098;-79
2022/09/10 08:02:43;;;;;;;22.08;9.25;;;;;;;;;;5057969;28;20488;-80
2022/09/10 08:05:09;;;;;;;17.10;8.00;;;;;;;;;;5050662;28;20221;-77
2022/09/10 08:07:36;;;;;;;22.63;8.63;;;;;;;;;;5056860;28;20024;-76
2022/09/10 08:10:04;;;;;;;32.55;10.27;;;;;;;;;;5054986;28;20063;-79
2022/09/10 08:12:32;;;;;;;16.30;9.43;;;;;;;;;;5054390;28;20044;-79
2022/09/10 08:14:59;;;;;;;30.95;10.45;;;;;;;;;;5051867;28;20052;-78
2022/09/10 08:17:26;;;;;;;23.05;9.88;;;;;;;;;;5057231;28;20141;-79
2022/09/10 08:19:52;;;;;;;19.48;9.55;;;;;;;;;;5060216;28;20025;-80
2022/09/10 08:22:19;;;;;;;22.13;10.40;;;;;;;;;;5058443;28;20025;-78
2022/09/10 08:24:46;;;;;;;18.92;8.75;;;;;;;;;;5060994;28;20158;-76
2022/09/10 08:27:14;;;;;;;21.48;8.35;;;;;;;;;;5058204;28;20040;-79
2022/09/10 08:29:41;;;;;;;22.02;8.50;;;;;;;;;;5053511;28;20033;-76
2022/09/10 08:32:07;;;;;;;20.67;8.73;;;;;;;;;;5059480;28;20051;-80
2022/09/10 08:34:34;;;;;;;20.08;8.73;;;;;;;;;;5054281;28;20024;-79
2022/09/10 08:37:02;;;;;;;24.95;9.98;;;;;;;;;;5049945;28;20111;-80
2022/09/10 08:39:30;;;;;;;19.80;8.43;;;;;;;;;;5055860;28;20017;-81
2022/09/10 08:42:02;;;;;;;20.83;9.23;;;;;;;;;;5055776;28;20030;-80
2022/09/10 08:44:32;;;;;;;12.02;7.78;;;;;;;;;;5056870;28;20103;-80
2022/09/10 08:47:06;;;;;;;25.48;9.13;;;;;;;;;;5057398;28;20663;-80
2022/09/10 08:49:44;;;;;;;22.73;9.13;;;;;;;;;;5055616;28;20041;-80
2022/09/10 08:52:26;;;;;;;19.25;8.38;;;;;;;;;;5057241;28;20583;-80
2022/09/10 08:54:58;;;;;;;17.33;9.55;;;;;;;;;;5057550;28;20027;-80
2022/09/10 08:57:29;;;;;;;21.40;8.82;;;;;;;;;;5059537;28;20025;-81
2022/09/10 08:59:56;;;;;;;18.50;8.23;;;;;;;;;;5057207;28;20034;-80
2022/09/10 09:02:34;;;;;;;16.88;8.40;;;;;;;;;;5053433;28;20021;-80
2022/09/10 09:05:09;;;;;;;20.05;9.48;;;;;;;;;;5040941;28;20130;-75
2022/09/10 09:07:38;;;;;;;22.23;8.70;;;;;;;;;;5047352;28;20490;-78
2022/09/10 09:10:13;;;;;;;17.42;8.70;;;;;;;;;;5056653;28;20395;-85
2022/09/10 09:12:49;;;;;;;17.48;8.45;;;;;;;;;;5055871;28;20377;-85
2022/09/10 09:15:21;;;;;;;22.95;9.43;;;;;;;;;;5052146;28;20441;-85
2022/09/10 09:18:09;;;;;;;21.52;8.75;;;;;;;;;;5046377;28;20536;-86
2022/09/10 09:20:56;;;;;;;22.52;9.43;;;;;;;;;;5043417;28;20029;-85
2022/09/10 09:23:43;;;;;;;22.90;9.52;;;;;;;;;;5054942;28;20032;-77
2022/09/10 09:26:11;;;;;;;19.67;9.48;;;;;;;;;;5053612;28;20427;-84
2022/09/10 09:28:43;;;;;;;16.80;8.80;;;;;;;;;;5053945;28;20029;-81
2022/09/10 09:31:14;;;;;;;24.52;10.80;;;;;;;;;;5055580;28;20029;-85
2022/09/10 09:33:40;;;;;;;;;;;;;;;;;;5055951;28;20020;-84
2022/09/10 09:36:07;;;;;;;19.35;9.27;;;;;;;;;;5054264;28;20390;-82
2022/09/10 09:38:41;;;;;;;20.55;11.13;;;;;;;;;;5064980;28;20033;-81
2022/09/10 09:41:14;;;;;;;20.55;10.88;;;;;;;;;;5057700;28;20106;-83
2022/09/10 09:43:40;;;;;;;17.83;9.80;;;;;;;;;;5067625;28;20428;-85
2022/09/10 09:46:13;;;;;;;19.42;10.18;;;;;;;;;;5052700;28;20032;-84
2022/09/10 09:48:41;;;;;;;23.15;10.20;;;;;;;;;;5053462;28;20045;-85
2022/09/10 09:51:10;;;;;;;24.90;11.13;;;;;;;;;;5052544;28;20080;-86
2022/09/10 09:53:36;;;;;;;19.58;10.02;;;;;;;;;;5055267;28;20047;-85
2022/09/10 09:56:11;;;;;;;24.67;10.80;;;;;;;;;;5049791;28;20584;-86
2022/09/10 09:58:38;;;;;;;24.88;11.13;;;;;;;;;;5055005;28;20025;-84
2022/09/10 10:01:05;;;;;;;19.98;10.45;;;;;;;;;;5069620;28;20113;-84
2022/09/10 10:03:32;;;;;;;17.55;9.43;;;;;;;;;;5059048;28;20460;-84
2022/09/10 10:06:02;;;;;;;16.45;9.38;;;;;;;;;;5060205;28;20024;-87
2022/09/10 10:08:40;;;;;;;24.70;9.60;;;;;;;;;;5057364;28;20028;-85
2022/09/10 10:11:07;;;;;;;16.95;8.25;;;;;;;;;;5057727;28;20060;-85
2022/09/10 10:13:43;;;;;;;22.85;9.93;;;;;;;;;;5057577;28;20059;-86
2022/09/10 10:16:23;;;;;;;22.83;9.05;;;;;;;;;;5056855;28;20408;-83
2022/09/10 10:18:50;;;;;;;24.95;10.40;;;;;;;;;;5057236;28;20386;-84
2022/09/10 10:21:21;;;;;;;17.40;9.35;;;;;;;;;;5060044;28;20032;-85
2022/09/10 10:23:47;;;;;;;;;;;;;;;;;;5056921;28;20025;-78
2022/09/10 10:26:29;;;;;;;18.10;9.18;;;;;;;;;;5060111;28;19981;-80
2022/09/10 10:29:06;;;;;;;21.38;9.45;;;;;;;;;;5055978;28;20047;-81
2022/09/10 10:31:40;;;;;;;25.23;10.38;;;;;;;;;;5056505;28;20135;-85
2022/09/10 10:34:09;;;;;;;19.92;9.30;;;;;;;;;;5056246;28;20174;-85
2022/09/10 10:36:56;;;;;;;22.52;10.27;;;;;;;;;;5050951;28;20536;-83
2022/09/10 10:39:34;;;;;;;27.25;10.48;;;;;;;;;;5053452;28;20047;-85
2022/09/10 10:42:03;;;;;;;22.42;9.38;;;;;;;;;;5053983;28;20023;-88
2022/09/10 10:44:30;;;;;;;17.13;8.85;;;;;;;;;;5056840;28;20056;-85
2022/09/10 10:47:15;;;;;;;24.70;9.60;;;;;;;;;;5057931;28;20096;-84
2022/09/10 10:50:02;;;;;;;17.25;8.52;;;;;;;;;;5055350;28;20408;-78
2022/09/10 10:52:32;;;;;;;18.52;9.35;;;;;;;;;;5054841;28;20047;-76
2022/09/10 10:55:17;;;;;;;23.73;9.02;;;;;;;;;;5056749;28;20021;-86
2022/09/10 10:57:43;;;;;;;16.35;8.82;;;;;;;;;;5057702;28;20032;-84
2022/09/10 11:00:11;;;;;;;20.35;8.25;;;;;;;;;;5055146;28;20017;-80
2022/09/10 11:02:38;;;;;;;23.58;8.50;;;;;;;;;;5057829;28;20070;-74
2022/09/10 11:05:33;;;;;;;17.42;7.22;;;;;;;;;;5055196;28;20021;-84
2022/09/10 11:08:01;;;;;;;17.05;8.73;;;;;;;;;;5054111;28;20476;-84
2022/09/10 11:10:31;;;;;;;22.80;8.68;;;;;;;;;;5054764;28;20035;-87
2022/09/10 11:13:11;;;;;;;16.90;8.20;;;;;;;;;;5056274;28;20025;-76
2022/09/10 11:15:51;;;;;;;15.70;7.57;;;;;;;;;;5057635;28;20122;-83
2022/09/10 11:18:20;;;;;;;16.35;7.43;;;;;;;;;;5054272;28;20024;-86
2022/09/10 11:20:55;;;;;;;24.45;8.10;;;;;;;;;;5051276;28;20383;-85
2022/09/10 11:23:32;;;;;;;16.92;7.85;;;;;;;;;;5054061;28;20036;-81
2022/09/10 11:26:06;;;;;;;16.75;6.95;;;;;;;;;;5055558;28;20032;-76
2022/09/10 11:28:35;;;;;;;17.40;7.95;;;;;;;;;;5056519;28;20127;-85
2022/09/10 11:31:08;;;;;;;17.73;7.78;;;;;;;;;;5057182;28;20357;-85
2022/09/10 11:33:58;;;;;;;15.15;7.05;;;;;;;;;;5056055;28;20468;-83
2022/09/10 11:36:30;;;;;;;20.77;7.75;;;;;;;;;;5049307;28;20501;-82
2022/09/10 11:39:18;;;;;;;15.18;7.47;;;;;;;;;;5067515;28;20033;-75
2022/09/10 11:41:46;;;;;;;19.38;7.97;;;;;;;;;;5049085;28;20544;-80
2022/09/10 11:44:22;;;;;;;16.38;7.20;;;;;;;;;;5049852;28;20111;-81
2022/09/10 11:46:48;;;;;;;21.20;7.68;;;;;;;;;;5049895;28;20017;-81
2022/09/10 11:49:16;;;;;;;14.48;6.70;;;;;;;;;;5064173;28;20045;-76
2022/09/10 11:51:44;;;;;;;19.27;7.00;;;;;;;;;;5047247;28;20564;-80
2022/09/10 11:54:12;;;;;;;16.67;6.78;;;;;;;;;;5047957;28;20025;-85
2022/09/10 11:56:39;;;;;;;17.77;7.05;;;;;;;;;;5049078;28;20112;-81
2022/09/10 11:59:24;;;;;;;19.65;7.07;;;;;;;;;;5047427;28;20020;-83
2022/09/10 12:02:01;;;;;;;17.70;7.13;;;;;;;;;;5049566;28;20135;-84
2022/09/10 12:04:27;;;;;;;17.05;6.60;;;;;;;;;;5047397;28;20376;-84
2022/09/10 12:07:13;;;;;;;12.60;6.15;;;;;;;;;;5052758;28;20070;-85
2022/09/10 12:09:42;;;;;;;19.38;7.90;;;;;;;;;;5048285;28;20104;-83
2022/09/10 12:12:12;;;;;;;18.20;8.00;;;;;;;;;;5052435;28;20501;-83
2022/09/10 12:14:40;;;;;;;16.92;6.78;;;;;;;;;;5047388;28;20017;-83
2022/09/10 12:17:10;;;;;;;13.27;6.55;;;;;;;;;;5055378;28;20063;-81
2022/09/10 12:19:44;;;;;;;11.52;6.53;;;;;;;;;;5046522;28;20052;-81
2022/09/10 12:22:23;;;;;;;15.82;6.68;;;;;;;;;;5050261;28;20031;-84
2022/09/10 12:25:09;;;;;;;19.20;7.03;;;;;;;;;;5049404;28;20031;-84
2022/09/10 12:27:50;;;;;;;15.70;7.07;;;;;;;;;;5051563;28;20400;-79
2022/09/10 12:30:29;;;;;;;17.23;6.35;;;;;;;;;;5049919;28;20485;-84
2022/09/10 12:32:58;;;;;;;16.50;6.63;;;;;;;;;;5046980;28;20021;-82
2022/09/10 12:35:30;;;;;;;14.75;6.20;;;;;;;;;;5050403;28;20566;-76
2022/09/10 12:38:15;;;;;;;16.58;6.68;;;;;;;;;;5052568;28;20024;-84
2022/09/10 12:40:48;;;;;;;17.38;6.88;;;;;;;;;;5047410;28;20025;-80
2022/09/10 12:43:33;;;;;;;14.10;5.57;;;;;;;;;;5050661;28;20090;-80
2022/09/10 12:46:04;;;;;;;15.85;6.18;;;;;;;;;;5048924;28;20072;-84
2022/09/10 12:48:34;;;;;;;18.08;6.88;;;;;;;;;;5048915;28;20385;-75
2022/09/10 12:51:03;;;;;;;14.05;6.13;;;;;;;;;;5054936;28;20024;-79
2022/09/10 12:53:47;;;;;;;14.40;5.15;;;;;;;;;;5054562;28;20020;-78
2022/09/10 12:56:21;;;;;;;10.45;5.25;;;;;;;;;;5045511;28;20040;-82
2022/09/10 12:58:48;;;;;;;13.30;5.25;;;;;;;;;;5051710;28;20887;-83
2022/09/10 13:01:17;;;;;;;13.68;5.32;;;;;;;;;;5049651;28;20032;-81
2022/09/10 13:03:52;;;;;;;12.15;4.45;;;;;;;;;;5055185;28;20012;-81
2022/09/10 13:06:18;;;;;;;16.38;5.65;;;;;;;;;;5038496;28;20339;-78
2022/09/10 13:08:46;;;;;;;11.43;5.28;;;;;;;;;;5055826;28;20479;-79
2022/09/10 13:11:14;;;;;;;13.73;4.63;;;;;;;;;;5054674;28;20081;-79
2022/09/10 13:13:53;;;;;;;13.55;4.72;;;;;;;;;;5063806;28;20017;-82
2022/09/10 13:16:39;;;;;;;14.73;5.25;;;;;;;;;;5056674;28;20025;-78
2022/09/10 13:19:12;;;;;;;13.40;5.28;;;;;;;;;;5059388;28;20023;-82
2022/09/10 13:21:45;;;;;;;15.75;5.13;;;;;;;;;;5056026;28;20108;-79
2022/09/10 13:24:30;;;;;;;18.23;5.82;;;;;;;;;;5060441;28;20024;-78
2022/09/10 13:27:15;;;;;;;14.60;4.72;;;;;;;;;;5057989;28;20025;-77
2022/09/10 13:29:44;;;;;;;13.82;4.63;;;;;;;;;;5061184;28;20100;-85
2022/09/10 13:32:15;;;;;;;9.90;4.40;;;;;;;;;;5057254;28;20029;-82
2022/09/10 13:35:00;;;;;;;15.00;4.55;;;;;;;;;;5058974;28;20487;-78
2022/09/10 13:37:45;;;;;;;14.10;3.97;;;;;;;;;;5052906;28;20115;-80
2022/09/10 13:40:11;;;;;;;10.00;4.40;;;;;;;;;;5060993;28;20383;-80
2022/09/10 13:42:55;;;;;;;9.68;3.75;;;;;;;;;;5059337;28;20029;-76
2022/09/10 13:45:47;;;;;;;9.05;3.85;;;;;;;;;;5060608;28;20475;-81
2022/09/10 13:48:24;;;;;;;13.82;4.60;;;;;;;;;;5053639;28;20083;-75
2022/09/10 13:50:50;;;;;;;13.50;4.63;;;;;;;;;;5056894;28;20037;-84
2022/09/10 13:53:18;;;;;;;16.63;4.85;;;;;;;;;;5063108;28;20095;-83
2022/09/10 13:55:50;;;;;;;12.70;4.45;;;;;;;;;;5051600;28;20029;-80
2022/09/10 13:58:18;;;;;;;9.75;4.15;;;;;;;;;;5054750;28;20373;-83
2022/09/10 14:01:10;;;;;;;12.07;4.32;;;;;;;;;;5058084;28;20029;-74
2022/09/10 14:03:38;;;;;;;9.27;3.55;;;;;;;;;;5062279;28;20043;-81
2022/09/10 14:06:07;;;;;;;11.45;4.13;;;;;;;;;;5058900;28;20582;-82
2022/09/10 14:08:45;;;;;;;11.50;4.43;;;;;;;;;;5057651;28;20037;-84
2022/09/10 14:11:12;;;;;;;14.60;4.00;;;;;;;;;;5060930;28;20036;-82
2022/09/10 14:13:41;;;;;;;10.38;4.25;;;;;;;;;;5059332;28;20377;-83
2022/09/10 14:16:09;;;;;;;10.85;4.47;;;;;;;;;;5060227;28;20025;-80
2022/09/10 14:18:47;;;;;;;16.15;4.40;;;;;;;;;;5056767;28;20052;-85
2022/09/10 14:21:14;;;;;;;9.38;3.42;;;;;;;;;;5057521;28;20269;-84
2022/09/10 14:23:44;;;;;;;9.35;3.83;;;;;;;;;;5066793;28;20021;-82
2022/09/10 14:26:13;;;;;;;20.48;4.75;;;;;;;;;;5056443;28;20105;-84
2022/09/10 14:28:53;;;;;;;10.35;3.88;;;;;;;;;;5057662;28;20023;-83
2022/09/10 14:31:20;;;;;;;14.93;4.50;;;;;;;;;;5058824;28;20056;-85
2022/09/10 14:33:46;;;;;;;11.98;3.95;;;;;;;;;;5056097;28;20373;-83
2022/09/10 14:36:28;;;;;;;12.70;4.05;;;;;;;;;;5054225;28;20067;-84
2022/09/10 14:38:57;;;;;;;15.20;3.80;;;;;;;;;;5051286;28;20224;-81
2022/09/10 14:41:25;;;;;;;12.75;4.25;;;;;;;;;;5052740;28;20052;-81
2022/09/10 14:44:10;;;;;;;9.18;3.63;;;;;;;;;;5052462;28;20111;-76